Puropanmaru No.3 — JD3322 — position and weather

sailwx.info

Track history (hours):
 
Tides and Currents Weather Stations Pressure Air Temp Water Temp Dewpoint Dewpoint Depression Visibility Wind Speed Wind Dir Waves Ship Positions

Puropanmaru No.3

Last reported at 2015-Mar-27 01:10 UTC. Time now 2015-Mar-27 03:36 UTC.
Position N 35°58' E 140°44'.

Length 68 m; draft 4.2 m.

Type: Tanker. MMSI: 431003365.

Date/timePositionNaut miles runAvg speedWind from/ knotsBaromVisibWave heightAir tempDewpointWater temp
2015-Mar-27 01:10N 35°58' E 140°44'2011.3
2015-Mar-26 23:26N 35°40' E 140°54'1112.6
2015-Mar-26 22:33N 35°31' E 140°45'1313.0
2015-Mar-26 21:33N 35°21' E 140°36'1313.4
2015-Mar-26 20:33N 35°10' E 140°26'1414.2
2015-Mar-26 19:33N 35°01' E 140°13'1514.3
2015-Mar-26 18:32N 34°53' E 139°58'1211.1
2015-Mar-26 17:29N 34°57' E 139°44'1213.1
2015-Mar-26 16:33N 35°09' E 139°45'1312.7
2015-Mar-26 15:33N 35°22' E 139°42'1212.2
2015-Mar-26 14:33N 35°30' E 139°53'6 6.2
2015-Mar-26 13:34N 35°28' E 140°00'0 0.0
2015-Mar-26 12:33N 35°28' E 140°00'0 0.0
2015-Mar-26 11:33N 35°28' E 140°00'0 0.0
2015-Mar-26 10:33N 35°28' E 140°00'1 1.0
2015-Mar-26 09:33N 35°29' E 140°01'0 0.0
2015-Mar-26 08:33N 35°29' E 140°01'0 0.0
2015-Mar-26 07:33N 35°29' E 140°01'0 0.0
2015-Mar-26 06:33N 35°29' E 140°01'0 0.0
2015-Mar-26 05:33N 35°29' E 140°01'0 0.0
2015-Mar-26 04:29N 35°29' E 140°01'0 0.0
2015-Mar-26 03:29N 35°29' E 140°01'0 0.0
2015-Mar-26 02:32N 35°29' E 140°01'0 0.0
2015-Mar-26 01:26N 35°29' E 140°01'0 0.0
2015-Mar-26 00:26N 35°29' E 140°01'0 0.1
2015-Mar-25 23:29N 35°29' E 140°01'4 4.1
2015-Mar-25 22:28N 35°29' E 139°56'0 0.1
2015-Mar-25 21:33N 35°29' E 139°56'0 0.1
2015-Mar-25 20:33N 35°28' E 139°56'0 0.0
2015-Mar-25 19:30N 35°28' E 139°56'0 0.0
2015-Mar-25 18:30N 35°28' E 139°56'0 0.0
2015-Mar-25 17:33N 35°28' E 139°56'0 0.0
2015-Mar-25 16:24N 35°28' E 139°56'0 0.0
2015-Mar-25 15:33N 35°28' E 139°56'0 0.0
2015-Mar-25 14:33N 35°28' E 139°56'0 0.0
2015-Mar-25 13:30N 35°28' E 139°56'0 0.0
2015-Mar-25 12:30N 35°28' E 139°56'0 0.0
2015-Mar-25 11:27N 35°29' E 139°56'0 0.0
2015-Mar-25 10:33N 35°29' E 139°56'0 0.0
2015-Mar-25 09:33N 35°29' E 139°56'0 0.0
2015-Mar-25 08:27N 35°29' E 139°56'0 0.0
2015-Mar-25 07:33N 35°29' E 139°56'0 0.0
2015-Mar-25 06:33N 35°28' E 139°56'0 0.0
2015-Mar-25 05:30N 35°28' E 139°56'0 0.0
2015-Mar-25 04:30N 35°28' E 139°56'0 0.0
2015-Mar-25 03:33N 35°28' E 139°56'0 0.0
2015-Mar-25 02:30N 35°29' E 139°56'0 0.0
2015-Mar-25 01:33N 35°28' E 139°56'0 0.0
2015-Mar-25 00:33N 35°28' E 139°56'0 0.0
2015-Mar-24 23:33N 35°29' E 139°56'0 0.0
2015-Mar-24 22:33N 35°29' E 139°56'1 0.9
2015-Mar-24 21:33N 35°29' E 139°55'1 0.5
2015-Mar-24 20:33N 35°29' E 139°55'0 0.0
2015-Mar-24 19:21N 35°29' E 139°55'0 0.0
2015-Mar-24 18:21N 35°29' E 139°55'0 0.0
2015-Mar-24 17:33N 35°29' E 139°55'0 0.0
2015-Mar-24 16:33N 35°29' E 139°55'0 0.0
2015-Mar-24 15:15N 35°29' E 139°55'0 0.0
2015-Mar-24 14:30N 35°29' E 139°55'0 0.0
2015-Mar-24 13:33N 35°29' E 139°55'0 0.0
2015-Mar-24 12:33N 35°29' E 139°55'0 0.0
2015-Mar-24 11:33N 35°29' E 139°55'0 0.0
2015-Mar-24 10:30N 35°29' E 139°55'1 1.4
2015-Mar-24 09:34N 35°30' E 139°54'7 6.8
2015-Mar-24 08:34N 35°31' E 139°46'0 0.0
2015-Mar-24 07:33N 35°31' E 139°46'0 0.0
2015-Mar-24 06:33N 35°31' E 139°46'0 0.0
2015-Mar-24 05:34N 35°31' E 139°46'0 0.0
2015-Mar-24 04:33N 35°31' E 139°46'6 6.4
2015-Mar-24 03:33N 35°31' E 139°54'7 6.9
2015-Mar-24 02:33N 35°31' E 140°02'0 0.0
2015-Mar-24 01:34N 35°31' E 140°02'0 0.0
2015-Mar-24 00:33N 35°31' E 140°02'0 0.0
2015-Mar-23 23:34N 35°31' E 140°02'6 5.5
2015-Mar-23 22:31N 35°28' E 139°56'0 0.0
2015-Mar-23 21:22N 35°28' E 139°56'0 0.0
2015-Mar-23 20:28N 35°28' E 139°56'0 0.0
2015-Mar-23 19:31N 35°28' E 139°56'0 0.0
2015-Mar-23 18:22N 35°28' E 139°56'0 0.0
2015-Mar-23 17:31N 35°28' E 139°56'0 0.1
2015-Mar-23 16:25N 35°28' E 139°56'0 0.0
2015-Mar-23 15:25N 35°28' E 139°56'0 0.0
2015-Mar-23 14:28N 35°28' E 139°56'7 8.3
2015-Mar-23 13:34N 35°25' E 139°48'1111.0
2015-Mar-23 12:34N 35°14' E 139°47'1312.9
2015-Mar-23 11:34N 35°02' E 139°44'18 7.7
2015-Mar-23 09:13N 34°57' E 140°05'63 6.2
2015-Mar-22 23:04N 35°54' E 140°41'3 6.5
2015-Mar-22 22:33N 35°57' E 140°42'0 0.0
2015-Mar-22 21:31N 35°57' E 140°42'0 0.0
2015-Mar-22 20:25N 35°57' E 140°42'0 0.0
2015-Mar-22 19:28N 35°57' E 140°42'0 0.0
2015-Mar-22 18:31N 35°57' E 140°42'0 0.0
2015-Mar-22 17:25N 35°57' E 140°42'0 0.0
2015-Mar-22 16:25N 35°57' E 140°42'0 0.0
2015-Mar-22 15:07N 35°57' E 140°42'0 0.0
2015-Mar-22 13:19N 35°57' E 140°42'4 4.3
2015-Mar-22 12:30N 35°56' E 140°46'1712.2
2015-Mar-22 11:05N 35°40' E 140°55'913.3
2015-Mar-22 10:24N 35°32' E 140°48'6010.3
2015-Mar-22 04:33N 35°03' E 139°44'1313.1
2015-Mar-22 03:33N 35°16' E 139°46'1110.6
2015-Mar-22 02:33N 35°26' E 139°46'17 0.6
2015-Mar-20 23:17N 35°33' E 140°05'9 0.8
2015-Mar-20 12:09N 35°30' E 139°54'812.7
2015-Mar-20 11:33N 35°25' E 139°48'1110.7
2015-Mar-20 10:33N 35°15' E 139°47'1212.2
2015-Mar-20 09:33N 35°03' E 139°41'  
2015-Mar-18 04:33N 35°06' E 139°39'1211.8
2015-Mar-18 03:33N 35°17' E 139°45'1110.9
2015-Mar-18 02:33N 35°28' E 139°47'4 3.8
2015-Mar-18 01:33N 35°31' E 139°46'0 0.0
2015-Mar-18 00:11N 35°31' E 139°46'0 0.0
2015-Mar-17 23:33N 35°31' E 139°46'0 0.0
2015-Mar-17 22:20N 35°31' E 139°46'2 2.5
2015-Mar-17 21:33N 35°30' E 139°48'2 1.5
2015-Mar-17 20:07N 35°31' E 139°50'0 0.0
2015-Mar-17 13:04N 35°31' E 139°50'0 0.0
2015-Mar-17 05:19N 35°31' E 139°50'0 0.0
2015-Mar-17 04:29N 35°31' E 139°50'  
Track history (hours):
 
Tides and Currents Weather Stations Pressure Air Temp Water Temp Dewpoint Dewpoint Depression Visibility Wind Speed Wind Dir Waves Ship Positions

Puropanmaru No.3

Last reported at 2015-Mar-27 01:10 UTC. Time now 2015-Mar-27 03:36 UTC.
Position N 35°58' E 140°44'.

Length 68 m; draft 4.2 m.

Type: Tanker. MMSI: 431003365.

Date/timePositionNaut miles runAvg speedWind from/ knotsBaromVisibWave heightAir tempDewpointWater temp
2015-Mar-27 01:10N 35°58' E 140°44'2011.3
2015-Mar-26 23:26N 35°40' E 140°54'1112.6
2015-Mar-26 22:33N 35°31' E 140°45'1313.0
2015-Mar-26 21:33N 35°21' E 140°36'1313.4
2015-Mar-26 20:33N 35°10' E 140°26'1414.2
2015-Mar-26 19:33N 35°01' E 140°13'1514.3
2015-Mar-26 18:32N 34°53' E 139°58'1211.1
2015-Mar-26 17:29N 34°57' E 139°44'1213.1
2015-Mar-26 16:33N 35°09' E 139°45'1312.7
2015-Mar-26 15:33N 35°22' E 139°42'1212.2
2015-Mar-26 14:33N 35°30' E 139°53'6 6.2
2015-Mar-26 13:34N 35°28' E 140°00'0 0.0
2015-Mar-26 12:33N 35°28' E 140°00'0 0.0
2015-Mar-26 11:33N 35°28' E 140°00'0 0.0
2015-Mar-26 10:33N 35°28' E 140°00'1 1.0
2015-Mar-26 09:33N 35°29' E 140°01'0 0.0
2015-Mar-26 08:33N 35°29' E 140°01'0 0.0
2015-Mar-26 07:33N 35°29' E 140°01'0 0.0
2015-Mar-26 06:33N 35°29' E 140°01'0 0.0
2015-Mar-26 05:33N 35°29' E 140°01'0 0.0
2015-Mar-26 04:29N 35°29' E 140°01'0 0.0
2015-Mar-26 03:29N 35°29' E 140°01'0 0.0
2015-Mar-26 02:32N 35°29' E 140°01'0 0.0
2015-Mar-26 01:26N 35°29' E 140°01'0 0.0
2015-Mar-26 00:26N 35°29' E 140°01'0 0.1
2015-Mar-25 23:29N 35°29' E 140°01'4 4.1
2015-Mar-25 22:28N 35°29' E 139°56'0 0.1
2015-Mar-25 21:33N 35°29' E 139°56'0 0.1
2015-Mar-25 20:33N 35°28' E 139°56'0 0.0
2015-Mar-25 19:30N 35°28' E 139°56'0 0.0
2015-Mar-25 18:30N 35°28' E 139°56'0 0.0
2015-Mar-25 17:33N 35°28' E 139°56'0 0.0
2015-Mar-25 16:24N 35°28' E 139°56'0 0.0
2015-Mar-25 15:33N 35°28' E 139°56'0 0.0
2015-Mar-25 14:33N 35°28' E 139°56'0 0.0
2015-Mar-25 13:30N 35°28' E 139°56'0 0.0
2015-Mar-25 12:30N 35°28' E 139°56'0 0.0
2015-Mar-25 11:27N 35°29' E 139°56'0 0.0
2015-Mar-25 10:33N 35°29' E 139°56'0 0.0
2015-Mar-25 09:33N 35°29' E 139°56'0 0.0
2015-Mar-25 08:27N 35°29' E 139°56'0 0.0
2015-Mar-25 07:33N 35°29' E 139°56'0 0.0
2015-Mar-25 06:33N 35°28' E 139°56'0 0.0
2015-Mar-25 05:30N 35°28' E 139°56'0 0.0
2015-Mar-25 04:30N 35°28' E 139°56'0 0.0
2015-Mar-25 03:33N 35°28' E 139°56'0 0.0
2015-Mar-25 02:30N 35°29' E 139°56'0 0.0
2015-Mar-25 01:33N 35°28' E 139°56'0 0.0
2015-Mar-25 00:33N 35°28' E 139°56'0 0.0
2015-Mar-24 23:33N 35°29' E 139°56'0 0.0
2015-Mar-24 22:33N 35°29' E 139°56'1 0.9
2015-Mar-24 21:33N 35°29' E 139°55'1 0.5
2015-Mar-24 20:33N 35°29' E 139°55'0 0.0
2015-Mar-24 19:21N 35°29' E 139°55'0 0.0
2015-Mar-24 18:21N 35°29' E 139°55'0 0.0
2015-Mar-24 17:33N 35°29' E 139°55'0 0.0
2015-Mar-24 16:33N 35°29' E 139°55'0 0.0
2015-Mar-24 15:15N 35°29' E 139°55'0 0.0
2015-Mar-24 14:30N 35°29' E 139°55'0 0.0
2015-Mar-24 13:33N 35°29' E 139°55'0 0.0
2015-Mar-24 12:33N 35°29' E 139°55'0 0.0
2015-Mar-24 11:33N 35°29' E 139°55'0 0.0
2015-Mar-24 10:30N 35°29' E 139°55'1 1.4
2015-Mar-24 09:34N 35°30' E 139°54'7 6.8
2015-Mar-24 08:34N 35°31' E 139°46'0 0.0
2015-Mar-24 07:33N 35°31' E 139°46'0 0.0
2015-Mar-24 06:33N 35°31' E 139°46'0 0.0
2015-Mar-24 05:34N 35°31' E 139°46'0 0.0
2015-Mar-24 04:33N 35°31' E 139°46'6 6.4
2015-Mar-24 03:33N 35°31' E 139°54'7 6.9
2015-Mar-24 02:33N 35°31' E 140°02'0 0.0
2015-Mar-24 01:34N 35°31' E 140°02'0 0.0
2015-Mar-24 00:33N 35°31' E 140°02'0 0.0
2015-Mar-23 23:34N 35°31' E 140°02'6 5.5
2015-Mar-23 22:31N 35°28' E 139°56'0 0.0
2015-Mar-23 21:22N 35°28' E 139°56'0 0.0
2015-Mar-23 20:28N 35°28' E 139°56'0 0.0
2015-Mar-23 19:31N 35°28' E 139°56'0 0.0
2015-Mar-23 18:22N 35°28' E 139°56'0 0.0
2015-Mar-23 17:31N 35°28' E 139°56'0 0.1
2015-Mar-23 16:25N 35°28' E 139°56'0 0.0
2015-Mar-23 15:25N 35°28' E 139°56'0 0.0
2015-Mar-23 14:28N 35°28' E 139°56'7 8.3
2015-Mar-23 13:34N 35°25' E 139°48'1111.0
2015-Mar-23 12:34N 35°14' E 139°47'1312.9
2015-Mar-23 11:34N 35°02' E 139°44'18 7.7
2015-Mar-23 09:13N 34°57' E 140°05'63 6.2
2015-Mar-22 23:04N 35°54' E 140°41'3 6.5
2015-Mar-22 22:33N 35°57' E 140°42'0 0.0
2015-Mar-22 21:31N 35°57' E 140°42'0 0.0
2015-Mar-22 20:25N 35°57' E 140°42'0 0.0
2015-Mar-22 19:28N 35°57' E 140°42'0 0.0
2015-Mar-22 18:31N 35°57' E 140°42'0 0.0
2015-Mar-22 17:25N 35°57' E 140°42'0 0.0
2015-Mar-22 16:25N 35°57' E 140°42'0 0.0
2015-Mar-22 15:07N 35°57' E 140°42'0 0.0
2015-Mar-22 13:19N 35°57' E 140°42'4 4.3
2015-Mar-22 12:30N 35°56' E 140°46'1712.2
2015-Mar-22 11:05N 35°40' E 140°55'913.3
2015-Mar-22 10:24N 35°32' E 140°48'6010.3
2015-Mar-22 04:33N 35°03' E 139°44'1313.1
2015-Mar-22 03:33N 35°16' E 139°46'1110.6
2015-Mar-22 02:33N 35°26' E 139°46'17 0.6
2015-Mar-20 23:17N 35°33' E 140°05'9 0.8
2015-Mar-20 12:09N 35°30' E 139°54'812.7
2015-Mar-20 11:33N 35°25' E 139°48'1110.7
2015-Mar-20 10:33N 35°15' E 139°47'1212.2
2015-Mar-20 09:33N 35°03' E 139°41'  
2015-Mar-18 04:33N 35°06' E 139°39'1211.8
2015-Mar-18 03:33N 35°17' E 139°45'1110.9
2015-Mar-18 02:33N 35°28' E 139°47'4 3.8
2015-Mar-18 01:33N 35°31' E 139°46'0 0.0
2015-Mar-18 00:11N 35°31' E 139°46'0 0.0
2015-Mar-17 23:33N 35°31' E 139°46'0 0.0
2015-Mar-17 22:20N 35°31' E 139°46'2 2.5
2015-Mar-17 21:33N 35°30' E 139°48'2 1.5
2015-Mar-17 20:07N 35°31' E 139°50'0 0.0
2015-Mar-17 13:04N 35°31' E 139°50'0 0.0
2015-Mar-17 05:19N 35°31' E 139°50'0 0.0
2015-Mar-17 04:29N 35°31' E 139°50'  

Dump ship's entire track history